Time;durP1;ratioP1;P1;durP2;ratioP2;P2;SDS_P1;SDS_P2;PMS_P1;PMS_P2;Temp;Humidity;BMP_temperature;BMP_pressure;BME280_temperature;BME280_humidity;BME280_pressure;Samples;Min_cycle;Max_cycle;Signal;HPM_P1;HPM_P2
2021/12/23 00:01:52;;;;;;;12.00;10.88;;;;;;;18.50;42.92;102095.28;5049999;28;20053;-84
2021/12/23 00:04:20;;;;;;;14.10;11.88;;;;;;;18.51;42.74;102083.63;5018005;28;20053;-84
2021/12/23 00:06:47;;;;;;;13.07;11.57;;;;;;;18.52;42.77;102092.53;5036403;28;20051;-83
2021/12/23 00:09:15;;;;;;;11.93;10.68;;;;;;;18.53;42.53;102091.56;5029986;28;20045;-85
2021/12/23 00:11:42;;;;;;;12.15;10.85;;;;;;;18.52;42.47;102087.16;5030727;28;20064;-86
2021/12/23 00:14:11;;;;;;;12.95;11.63;;;;;;;18.52;42.50;102087.16;5037745;28;20046;-86
2021/12/23 00:16:43;;;;;;;12.02;10.60;;;;;;;18.52;42.24;102085.34;5035683;28;20049;-86
2021/12/23 00:24:40;;;;;;;11.80;10.63;;;;;;;18.53;42.10;102088.88;5034519;28;20109;-84
2021/12/23 00:27:09;;;;;;;11.40;10.18;;;;;;;18.52;42.08;102090.72;5017302;28;20052;-84
2021/12/23 00:29:39;;;;;;;13.07;10.90;;;;;;;18.53;41.88;102096.94;5035135;28;20056;-83
2021/12/23 00:32:08;;;;;;;12.05;10.63;;;;;;;18.53;42.08;102096.94;5050019;28;20488;-84
2021/12/23 00:34:37;;;;;;;11.57;10.27;;;;;;;18.53;42.06;102092.41;5034330;28;20052;-84
2021/12/23 00:37:10;;;;;;;13.25;10.27;;;;;;;18.52;42.07;102097.91;5016527;28;20405;-84
2021/12/23 00:39:38;;;;;;;11.93;10.73;;;;;;;18.53;42.17;102102.28;5033663;28;20064;-84
2021/12/23 00:42:07;;;;;;;12.00;10.70;;;;;;;18.53;42.18;102102.28;5016762;28;20065;-84
2021/12/23 00:44:39;;;;;;;14.02;10.57;;;;;;;18.53;42.28;102103.16;5034976;28;20056;-84
2021/12/23 00:47:07;;;;;;;13.48;10.40;;;;;;;18.53;42.35;102096.94;5034546;28;20057;-84
2021/12/23 00:49:34;;;;;;;12.73;11.40;;;;;;;18.54;42.25;102098.66;5034670;28;20477;-84
2021/12/23 00:52:05;;;;;;;12.32;10.50;;;;;;;18.54;42.15;102087.91;5033510;28;20052;-84
2021/12/23 00:54:32;;;;;;;11.75;10.55;;;;;;;18.53;42.31;102076.34;5033810;28;20038;-84
2021/12/23 00:56:59;;;;;;;10.90;9.80;;;;;;;18.54;42.06;102072.69;5033481;28;20484;-84
2021/12/23 00:59:27;;;;;;;11.95;10.75;;;;;;;18.55;42.10;102078.91;5034464;28;20100;-84
2021/12/23 01:01:55;;;;;;;12.55;11.35;;;;;;;18.54;41.97;102070.00;5034496;28;20061;-84
2021/12/23 01:04:27;;;;;;;11.73;10.60;;;;;;;18.55;41.85;102073.53;5035317;28;20041;-84
2021/12/23 01:06:54;;;;;;;10.98;9.82;;;;;;;18.55;41.93;102076.22;5033684;28;20054;-86
2021/12/23 01:09:22;;;;;;;11.77;10.55;;;;;;;18.57;41.75;102078.81;5033175;28;20050;-86
2021/12/23 01:11:50;;;;;;;11.95;10.85;;;;;;;18.57;42.09;102078.81;5034125;28;20041;-86
2021/12/23 01:19:26;;;;;;;11.02;9.95;;;;;;;18.57;41.81;102079.69;5016411;28;20064;-86
2021/12/23 01:21:54;;;;;;;11.75;10.55;;;;;;;18.58;41.91;102078.72;5033629;28;20052;-85
2021/12/23 01:24:26;;;;;;;10.85;9.75;;;;;;;18.58;41.80;102072.50;5033476;28;20048;-85
2021/12/23 01:26:53;;;;;;;11.47;10.37;;;;;;;18.59;41.54;102068.84;5016123;28;20148;-85
2021/12/23 01:29:21;;;;;;;11.20;10.07;;;;;;;18.57;41.76;102066.28;5034261;28;20093;-85
2021/12/23 01:31:48;;;;;;;11.13;10.02;;;;;;;18.59;41.62;102069.72;5034573;28;20393;-84
2021/12/23 01:34:16;;;;;;;11.13;10.02;;;;;;;18.58;41.57;102070.69;5035362;28;20393;-85
2021/12/23 01:36:43;;;;;;;10.50;9.45;;;;;;;18.59;41.66;102069.72;5034195;28;20041;-85
2021/12/23 01:39:13;;;;;;;10.90;9.55;;;;;;;18.58;41.71;102070.69;5034896;28;20049;-85
2021/12/23 01:41:41;;;;;;;10.43;9.43;;;;;;;18.60;41.62;102074.13;5034514;28;20041;-85
2021/12/23 01:44:08;;;;;;;10.75;9.68;;;;;;;18.59;41.62;102069.72;5017863;28;20049;-85
2021/12/23 01:46:36;;;;;;;12.27;10.10;;;;;;;18.61;41.87;102067.81;5017675;28;20057;-84
2021/12/23 01:49:03;;;;;;;10.40;9.40;;;;;;;18.61;41.50;102070.50;5015923;28;20065;-85
2021/12/23 01:51:31;;;;;;;10.05;9.05;;;;;;;18.60;41.47;102060.72;5034531;28;20049;-84
2021/12/23 01:53:59;;;;;;;12.38;9.70;;;;;;;18.61;41.40;102056.22;5033417;28;20045;-83
2021/12/23 01:56:27;;;;;;;11.23;9.77;;;;;;;18.61;41.55;102057.06;5033442;28;20041;-84
2021/12/23 01:58:55;;;;;;;10.68;9.57;;;;;;;18.62;41.37;102045.38;4999780;28;20053;-83
2021/12/23 02:01:23;;;;;;;10.50;9.50;;;;;;;18.61;41.55;102054.41;5015614;28;20045;-82
2021/12/23 02:03:51;;;;;;;10.95;9.85;;;;;;;18.61;41.52;102051.72;5033269;28;20508;-82
2021/12/23 02:06:18;;;;;;;12.23;10.15;;;;;;;18.61;41.75;102040.13;5033472;28;20404;-83
2021/12/23 02:08:45;;;;;;;10.13;9.05;;;;;;;18.61;41.59;102042.81;5016061;28;20053;-83
2021/12/23 02:11:14;;;;;;;10.63;9.55;;;;;;;18.60;41.53;102033.06;4999316;28;20050;-83
2021/12/23 02:13:42;;;;;;;11.23;10.02;;;;;;;18.61;41.38;102032.09;5033424;28;20041;-82
2021/12/23 02:16:09;;;;;;;10.65;9.63;;;;;;;18.60;41.62;102033.91;5033567;28;20042;-82
2021/12/23 02:18:36;;;;;;;11.20;9.88;;;;;;;18.61;41.51;102030.25;5034057;28;20388;-83
2021/12/23 02:21:05;;;;;;;10.90;9.68;;;;;;;18.60;41.47;102025.88;5033821;28;20056;-83
2021/12/23 02:23:34;;;;;;;10.27;9.27;;;;;;;18.60;41.54;102033.91;5051765;28;20052;-83
2021/12/23 02:26:02;;;;;;;12.90;9.60;;;;;;;18.60;41.64;102023.19;5036484;28;20477;-82
2021/12/23 02:28:30;;;;;;;10.10;9.07;;;;;;;18.60;41.53;102025.00;5036809;28;20049;-84
2021/12/23 02:30:58;;;;;;;11.00;9.90;;;;;;;18.60;41.64;102022.31;5036461;28;20052;-84
2021/12/23 02:33:27;;;;;;;10.75;9.65;;;;;;;18.59;41.51;102013.38;5037360;28;20056;-83
2021/12/23 02:35:56;;;;;;;10.27;9.23;;;;;;;18.59;41.37;102013.38;5037011;28;20048;-83
2021/12/23 02:38:24;;;;;;;10.32;9.32;;;;;;;18.58;41.73;102005.44;5036431;28;20114;-84
2021/12/23 02:40:53;;;;;;;10.20;9.20;;;;;;;18.58;41.66;102006.31;5036692;28;20049;-84
2021/12/23 02:43:24;;;;;;;11.52;10.38;;;;;;;18.57;41.63;101999.22;5036861;28;20401;-84
2021/12/23 02:45:57;;;;;;;10.63;9.52;;;;;;;18.57;41.42;102001.91;5018330;28;20042;-85
2021/12/23 02:48:34;;;;;;;;;;;;;;;18.58;41.59;101992.03;5037157;28;20416;-85
2021/12/23 02:51:05;;;;;;;11.48;9.57;;;;;;;18.58;41.72;102002.78;5036699;28;19921;-85
2021/12/23 02:53:32;;;;;;;10.18;9.13;;;;;;;18.56;41.51;101991.28;5018199;28;20049;-85
2021/12/23 02:56:02;;;;;;;14.75;9.63;;;;;;;18.56;41.66;101983.25;5037024;28;20050;-85
2021/12/23 02:58:31;;;;;;;12.27;9.50;;;;;;;18.56;41.34;101978.75;5017386;28;20061;-84
2021/12/23 03:01:00;;;;;;;10.52;9.32;;;;;;;18.57;41.53;101990.31;5036089;28;20041;-84
2021/12/23 03:03:28;;;;;;;13.07;10.48;;;;;;;18.57;41.27;101987.66;5017798;28;20049;-84
2021/12/23 03:05:58;;;;;;;11.40;10.07;;;;;;;18.57;41.43;101982.28;5036360;28;20500;-85
2021/12/23 03:08:47;;;;;;;11.90;10.10;;;;;;;18.57;41.51;101979.59;5018367;28;20054;-83
2021/12/23 03:11:17;;;;;;;11.10;9.90;;;;;;;18.57;41.57;101977.78;5037239;28;20049;-85
2021/12/23 03:13:47;;;;;;;11.18;9.73;;;;;;;18.56;41.46;101981.44;5019750;28;20041;-85
2021/12/23 03:16:18;;;;;;;10.63;9.52;;;;;;;18.56;41.50;101986.78;5036054;28;20057;-85
2021/12/23 03:18:46;;;;;;;13.38;10.38;;;;;;;18.55;41.29;101977.00;5036365;28;20045;-85
2021/12/23 03:21:13;;;;;;;10.88;9.77;;;;;;;18.56;41.81;101978.75;5017425;28;20049;-84
2021/12/23 03:23:41;;;;;;;11.52;10.25;;;;;;;18.57;41.39;101990.31;5036602;28;20045;-85
2021/12/23 03:26:09;;;;;;;11.43;10.18;;;;;;;18.56;41.62;101977.88;5036682;28;20038;-85
2021/12/23 03:28:37;;;;;;;12.82;10.80;;;;;;;18.56;41.55;101983.25;5036938;28;20053;-85
2021/12/23 03:31:05;;;;;;;11.25;10.10;;;;;;;18.55;41.55;101985.03;5037604;28;20052;-85
2021/12/23 03:33:33;;;;;;;12.98;10.77;;;;;;;18.55;41.52;101990.41;5036152;28;20045;-85
2021/12/23 03:36:01;;;;;;;13.27;10.75;;;;;;;18.56;41.53;101980.56;5036576;28;20037;-85
2021/12/23 03:38:29;;;;;;;12.20;9.35;;;;;;;18.54;41.49;101986.88;5017649;28;20049;-85
2021/12/23 03:40:56;;;;;;;12.57;11.05;;;;;;;18.54;41.57;101978.81;5051003;28;20076;-85
2021/12/23 03:43:24;;;;;;;11.82;10.15;;;;;;;18.54;41.53;101975.28;5036282;28;20045;-85
2021/12/23 03:45:51;;;;;;;11.05;9.68;;;;;;;18.55;41.59;101977.00;5036604;28;20045;-85
2021/12/23 03:48:19;;;;;;;12.10;10.52;;;;;;;18.54;41.83;101983.34;5035955;28;20076;-85
2021/12/23 03:50:47;;;;;;;11.82;10.40;;;;;;;18.53;41.70;101970.88;5000348;28;20132;-85
2021/12/23 03:53:16;;;;;;;14.93;10.40;;;;;;;18.54;41.62;101980.66;5017231;28;20053;-85
2021/12/23 03:55:44;;;;;;;13.15;10.05;;;;;;;18.52;41.65;101972.72;5036200;28;20049;-85
2021/12/23 03:58:11;;;;;;;12.60;10.05;;;;;;;18.52;41.54;101972.72;5018304;28;20053;-85
2021/12/23 04:00:39;;;;;;;13.95;10.63;;;;;;;18.51;41.50;101976.38;5036188;28;20046;-85
2021/12/23 04:03:07;;;;;;;11.85;9.90;;;;;;;18.52;41.67;101977.22;5036269;28;20045;-85
2021/12/23 04:05:35;;;;;;;12.82;10.57;;;;;;;18.52;41.69;101980.75;5036542;28;20346;-84
2021/12/23 04:08:02;;;;;;;12.45;10.30;;;;;;;18.51;41.70;101983.53;5037420;28;20049;-85
2021/12/23 04:10:30;;;;;;;14.52;11.13;;;;;;;18.51;41.64;101975.47;5017940;28;20101;-85
2021/12/23 04:12:57;;;;;;;13.20;10.98;;;;;;;18.50;41.66;101974.63;5034901;28;20050;-85
2021/12/23 04:15:25;;;;;;;12.93;10.60;;;;;;;18.51;41.69;101975.47;5036670;28;20491;-85
2021/12/23 04:17:52;;;;;;;12.00;10.32;;;;;;;18.51;41.78;101976.38;5017146;28;20046;-85
2021/12/23 04:20:23;;;;;;;14.80;11.30;;;;;;;18.51;41.51;101968.31;5035077;28;20057;-85
2021/12/23 04:22:53;;;;;;;14.38;11.07;;;;;;;18.51;41.75;101964.75;5035209;28;20148;-85
2021/12/23 04:25:27;;;;;;;12.02;10.38;;;;;;;18.51;41.80;101954.91;5034680;28;20048;-85
2021/12/23 04:27:59;;;;;;;14.85;11.35;;;;;;;18.51;41.77;101959.38;5035572;28;20492;-85
2021/12/23 04:30:26;;;;;;;12.20;10.52;;;;;;;18.50;41.70;101958.53;5035814;28;20046;-85
2021/12/23 04:32:55;;;;;;;16.17;11.98;;;;;;;18.50;41.84;101955.00;5019909;28;20042;-85
2021/12/23 04:35:23;;;;;;;14.95;11.80;;;;;;;18.49;41.97;101954.13;5047004;28;20088;-84
2021/12/23 04:37:50;;;;;;;13.90;10.60;;;;;;;18.49;41.72;101958.63;5036396;28;20420;-84
2021/12/23 04:40:18;;;;;;;15.15;11.43;;;;;;;18.48;41.80;101957.78;5036174;28;20081;-84
2021/12/23 04:42:46;;;;;;;13.05;11.65;;;;;;;18.49;41.77;101961.31;5035385;28;20072;-84
2021/12/23 04:45:14;;;;;;;14.93;11.52;;;;;;;18.49;41.75;101953.28;5016597;28;20057;-84
2021/12/23 04:47:43;;;;;;;12.80;10.70;;;;;;;18.48;42.06;101952.41;5033877;28;20056;-84
2021/12/23 04:50:14;;;;;;;14.73;11.82;;;;;;;18.48;41.79;101949.75;5031180;28;20049;-84
2021/12/23 04:52:43;;;;;;;11.40;10.25;;;;;;;18.48;41.84;101949.75;5035350;28;20061;-84
2021/12/23 04:55:14;;;;;;;12.68;10.63;;;;;;;18.48;41.85;101946.19;5016834;28;20112;-85
2021/12/23 04:57:42;;;;;;;13.90;11.55;;;;;;;18.49;41.76;101951.44;5035758;28;20046;-83
2021/12/23 05:00:18;;;;;;;13.80;10.77;;;;;;;18.49;41.84;101956.81;5035437;28;20041;-84
2021/12/23 05:02:46;;;;;;;13.98;10.93;;;;;;;18.48;41.93;101960.47;5035528;28;20049;-84
2021/12/23 05:05:14;;;;;;;14.38;11.35;;;;;;;18.47;41.94;101955.19;5035024;28;20052;-85
2021/12/23 05:07:43;;;;;;;13.85;11.13;;;;;;;18.47;41.93;101947.13;5016911;28;20053;-85
2021/12/23 05:10:12;;;;;;;14.77;11.77;;;;;;;18.48;42.04;101952.41;5034627;28;20045;-84
2021/12/23 05:12:43;;;;;;;13.52;11.93;;;;;;;18.47;41.93;101949.81;5035390;28;20048;-85
2021/12/23 05:15:13;;;;;;;13.25;11.02;;;;;;;18.46;42.08;101956.16;5016838;28;20049;-84
2021/12/23 05:17:41;;;;;;;13.48;11.57;;;;;;;18.46;41.91;101961.50;5035815;28;20041;-84
2021/12/23 05:20:11;;;;;;;14.52;12.00;;;;;;;18.46;41.88;101956.16;5034244;28;20045;-85
2021/12/23 05:22:39;;;;;;;15.30;11.30;;;;;;;18.45;41.98;101952.59;5035356;28;20056;-84
2021/12/23 05:25:08;;;;;;;13.98;11.75;;;;;;;18.46;41.97;101950.78;5034718;28;20408;-83
2021/12/23 05:27:36;;;;;;;12.43;11.10;;;;;;;18.45;41.89;101949.94;5017082;28;20493;-91
2021/12/23 05:30:06;;;;;;;14.68;11.95;;;;;;;18.46;41.91;101948.09;5034912;28;20041;-84
2021/12/23 05:32:33;;;;;;;15.93;11.95;;;;;;;18.45;42.07;101941.03;5034851;28;20060;-83
2021/12/23 05:35:01;;;;;;;15.45;12.02;;;;;;;18.44;42.06;101942.84;5034173;28;20046;-84
2021/12/23 05:37:28;;;;;;;14.52;12.05;;;;;;;18.44;42.05;101942.00;5035703;28;20045;-83
2021/12/23 05:39:56;;;;;;;15.45;11.65;;;;;;;18.44;42.11;101947.34;5035650;28;20086;-83
2021/12/23 05:42:23;;;;;;;13.95;11.38;;;;;;;18.43;42.01;101949.19;5033888;28;20400;-83
2021/12/23 05:44:50;;;;;;;14.13;11.30;;;;;;;18.44;42.18;101939.31;5015137;28;20053;-83
2021/12/23 05:47:20;;;;;;;14.82;11.27;;;;;;;18.44;42.16;101947.34;5016014;28;20428;-83
2021/12/23 05:49:47;;;;;;;15.15;12.43;;;;;;;18.44;42.08;101942.00;5017090;28;20061;-84
2021/12/23 05:52:15;;;;;;;13.43;12.00;;;;;;;18.43;41.77;101941.13;5034978;28;20378;-84
2021/12/23 05:54:43;;;;;;;14.48;11.85;;;;;;;18.43;42.13;101940.25;5034103;28;20048;-84
2021/12/23 05:57:10;;;;;;;17.10;12.52;;;;;;;18.43;42.15;101938.47;5036834;28;20042;-83
2021/12/23 05:59:38;;;;;;;16.58;12.73;;;;;;;18.43;42.22;101934.88;5036944;28;20431;-83
2021/12/23 06:02:05;;;;;;;15.32;12.50;;;;;;;18.42;42.09;101934.03;5036650;28;20045;-83
2021/12/23 06:04:34;;;;;;;14.00;11.50;;;;;;;18.43;42.01;101934.88;5051282;28;20045;-83
2021/12/23 06:07:03;;;;;;;14.65;12.13;;;;;;;18.43;42.02;101934.88;5020416;28;20396;-83
2021/12/23 06:09:30;;;;;;;18.98;13.07;;;;;;;18.42;42.02;101934.03;5038190;28;20049;-83
2021/12/23 06:11:58;;;;;;;14.55;12.00;;;;;;;18.43;42.16;101942.94;5037568;28;20049;-84
2021/12/23 06:14:25;;;;;;;13.15;11.68;;;;;;;18.43;42.05;101932.22;5037789;28;20068;-84
2021/12/23 06:16:53;;;;;;;15.52;12.70;;;;;;;18.43;42.11;101929.53;5019189;28;20421;-85
2021/12/23 06:19:20;;;;;;;16.38;13.05;;;;;;;18.42;42.06;101931.34;5038421;28;20057;-85
2021/12/23 06:21:47;;;;;;;14.90;11.90;;;;;;;18.41;42.00;101937.69;5037862;28;20049;-85
2021/12/23 06:24:15;;;;;;;17.40;12.77;;;;;;;18.42;41.99;101931.34;5037993;28;20050;-85
2021/12/23 06:26:42;;;;;;;16.45;12.05;;;;;;;18.42;42.09;101938.53;5019222;28;20045;-85
2021/12/23 06:29:10;;;;;;;16.27;12.68;;;;;;;18.41;42.17;101926.94;5035750;28;20046;-84
2021/12/23 06:31:37;;;;;;;16.05;11.95;;;;;;;18.42;42.09;101922.44;5037385;28;20050;-84
2021/12/23 06:34:05;;;;;;;16.65;12.90;;;;;;;18.42;42.14;101919.75;5019959;28;20049;-83
2021/12/23 06:36:33;;;;;;;17.17;12.32;;;;;;;18.42;41.98;101919.75;5038587;28;20477;-84
2021/12/23 06:39:01;;;;;;;14.43;11.82;;;;;;;18.40;42.17;101909.16;5019768;28;20045;-84
2021/12/23 06:41:28;;;;;;;19.77;12.95;;;;;;;18.41;42.22;101920.75;5036914;28;20477;-84
2021/12/23 06:43:55;;;;;;;16.42;12.18;;;;;;;18.40;42.23;101924.38;5037211;28;20038;-84
2021/12/23 06:46:23;;;;;;;15.82;12.65;;;;;;;18.40;42.40;101924.38;5036612;28;20049;-83
2021/12/23 06:48:50;;;;;;;16.92;12.85;;;;;;;18.40;42.29;101910.97;5019371;28;20057;-83
2021/12/23 06:51:18;;;;;;;18.10;13.52;;;;;;;18.39;42.47;101914.59;5036293;28;20061;-82
2021/12/23 06:53:45;;;;;;;19.27;13.77;;;;;;;18.39;42.61;101912.81;5018167;28;20045;-82
2021/12/23 06:56:16;;;;;;;16.20;12.77;;;;;;;18.39;42.72;101915.47;5036164;28;20045;-82
2021/12/23 06:58:48;;;;;;;16.55;13.10;;;;;;;18.39;42.73;101909.22;5036503;28;20473;-84
2021/12/23 07:01:20;;;;;;;20.10;11.93;;;;;;;18.39;42.41;101914.59;5036419;28;20072;-84
2021/12/23 07:06:37;;;;;;;17.63;13.27;;;;;;;18.39;42.52;101907.44;5015967;28;20494;-86
2021/12/23 07:09:05;;;;;;;18.48;13.02;;;;;;;18.38;43.09;101904.84;5014559;28;20058;-83
2021/12/23 07:11:34;;;;;;;27.38;19.23;;;;;;;18.33;40.93;101915.88;5015354;28;20058;-83
2021/12/23 07:14:02;;;;;;;34.95;22.65;;;;;;;18.08;40.43;101910.38;4998232;28;20060;-83
2021/12/23 07:16:29;;;;;;;21.70;15.40;;;;;;;18.03;43.91;101911.53;5017905;28;20050;-83
2021/12/23 07:18:57;;;;;;;19.25;14.27;;;;;;;18.05;44.03;101903.38;5015898;28;20057;-83
2021/12/23 07:21:25;;;;;;;20.45;13.70;;;;;;;18.10;43.69;101906.59;5014398;28;20054;-83
2021/12/23 07:23:52;;;;;;;19.02;13.93;;;;;;;18.13;43.65;101910.94;4998724;28;20061;-83
2021/12/23 07:26:19;;;;;;;23.08;14.27;;;;;;;18.16;43.63;101914.28;5014975;28;20533;-83
2021/12/23 07:28:46;;;;;;;20.23;14.18;;;;;;;18.17;43.43;101924.03;5015242;28;20139;-83
2021/12/23 07:31:14;;;;;;;18.67;14.00;;;;;;;18.19;43.59;101906.03;5014519;28;20062;-83
2021/12/23 07:33:41;;;;;;;18.20;14.20;;;;;;;18.22;43.70;101911.19;5033025;28;20049;-93
2021/12/23 07:36:09;;;;;;;22.08;14.80;;;;;;;18.23;43.67;101915.59;4990498;28;20624;-87
2021/12/23 07:38:37;;;;;;;25.35;15.38;;;;;;;18.25;43.42;101908.31;5013284;28;20389;-83
2021/12/23 07:41:04;;;;;;;19.20;14.75;;;;;;;18.27;43.26;101909.09;5014469;28;20046;-84
2021/12/23 07:46:04;;;;;;;25.48;16.05;;;;;;;18.29;43.07;101904.47;4998996;28;20057;-86
2021/12/23 07:48:31;;;;;;;28.63;18.25;;;;;;;18.28;42.63;101902.75;5021260;28;20519;-90
2021/12/23 07:51:00;;;;;;;33.60;23.38;;;;;;;18.25;41.06;101899.41;5036411;28;20056;-87
2021/12/23 07:53:27;;;;;;;30.73;22.67;;;;;;;18.22;40.63;101899.59;5036210;28;20053;-85
2021/12/23 07:55:55;;;;;;;34.72;25.02;;;;;;;18.20;40.69;101904.22;5036816;28;20072;-85
2021/12/23 07:58:22;;;;;;;30.63;21.27;;;;;;;18.18;41.30;101893.56;5020462;28;20116;-92
2021/12/23 08:00:50;;;;;;;27.40;20.05;;;;;;;18.18;42.01;101898.94;5017327;28;20068;-87
2021/12/23 08:03:17;;;;;;;33.08;23.05;;;;;;;18.19;41.27;101895.31;5019606;28;20386;-86
2021/12/23 08:05:45;;;;;;;36.78;25.50;;;;;;;18.18;40.93;101893.56;5018874;28;20060;-90
2021/12/23 08:08:12;;;;;;;35.63;25.35;;;;;;;18.16;41.07;101895.50;5036520;28;20061;-91
2021/12/23 08:10:40;;;;;;;37.05;26.42;;;;;;;18.15;40.74;101888.44;5020163;28;20053;-88
2021/12/23 08:13:07;;;;;;;35.75;25.33;;;;;;;18.15;41.33;101885.75;5018797;28;20535;-84
2021/12/23 08:15:35;;;;;;;33.47;24.60;;;;;;;18.16;41.36;101883.94;5036724;28;20049;-89
2021/12/23 08:18:03;;;;;;;38.08;25.40;;;;;;;18.15;40.59;101874.16;5036325;28;20057;-87
2021/12/23 08:20:31;;;;;;;37.92;26.58;;;;;;;18.14;40.52;101875.97;5036769;28;20049;-89
2021/12/23 08:22:58;;;;;;;37.72;27.10;;;;;;;18.12;40.19;101864.50;5019899;28;20480;-86
2021/12/23 08:25:26;;;;;;;38.60;26.40;;;;;;;18.11;40.17;101854.75;5036132;28;20509;-90
2021/12/23 08:27:53;;;;;;;36.10;26.50;;;;;;;18.09;40.01;101856.66;5016061;28;20045;-89
2021/12/23 08:30:21;;;;;;;37.25;27.20;;;;;;;18.09;40.42;101853.97;5016936;28;20053;-90
2021/12/23 08:32:50;;;;;;;36.22;25.55;;;;;;;18.10;40.99;101858.38;5035179;28;20349;-89
2021/12/23 08:35:17;;;;;;;32.42;23.15;;;;;;;18.10;41.84;101866.41;5035747;28;20053;-92
2021/12/23 08:37:47;;;;;;;31.90;22.92;;;;;;;18.11;41.75;101860.13;5017718;28;20488;-91
2021/12/23 08:40:18;;;;;;;29.52;21.60;;;;;;;18.13;41.86;101850.13;5017314;28;20056;-90
2021/12/23 08:42:48;;;;;;;30.00;21.20;;;;;;;18.14;41.93;101842.97;5034278;28;20045;-88
2021/12/23 08:45:17;;;;;;;31.30;21.77;;;;;;;18.15;42.16;101845.56;5035113;28;20066;-86
2021/12/23 08:47:45;;;;;;;28.45;21.08;;;;;;;18.16;42.20;101849.09;5015818;28;20050;-89
2021/12/23 08:50:15;;;;;;;30.25;20.83;;;;;;;18.18;42.38;101855.19;5016158;28;20049;-82
2021/12/23 08:52:43;;;;;;;26.75;20.63;;;;;;;18.18;42.38;101849.84;5034823;28;20060;-84
2021/12/23 08:55:12;;;;;;;27.73;19.75;;;;;;;18.19;42.50;101849.75;5018885;28;20480;-87
2021/12/23 08:57:40;;;;;;;30.13;21.30;;;;;;;18.21;42.52;101849.66;5035726;28;20049;-83
2021/12/23 09:00:12;;;;;;;25.05;18.73;;;;;;;18.22;42.37;101851.34;5037104;28;20049;-88
2021/12/23 09:02:39;;;;;;;27.73;19.52;;;;;;;18.21;42.33;101847.81;5056774;28;20045;-83
2021/12/23 09:05:07;;;;;;;26.40;19.17;;;;;;;18.24;42.33;101844.09;5047702;28;20053;-88
2021/12/23 09:07:35;;;;;;;28.48;19.63;;;;;;;18.26;42.71;101845.69;5038203;28;20056;-86
2021/12/23 09:10:05;;;;;;;25.20;19.08;;;;;;;18.28;42.80;101842.94;5049920;28;20409;-87
2021/12/23 09:12:32;;;;;;;27.98;20.00;;;;;;;18.28;43.09;101835.75;5035035;28;20045;-86
2021/12/23 09:15:00;;;;;;;25.77;18.38;;;;;;;18.28;43.92;101850.97;5034030;28;20041;-88
2021/12/23 09:17:28;;;;;;;24.38;18.27;;;;;;;18.28;45.00;101856.34;5015907;28;20098;-85
2021/12/23 09:19:55;;;;;;;25.58;17.73;;;;;;;18.28;45.90;101861.69;5015759;28;20045;-87
2021/12/23 09:22:22;;;;;;;25.02;17.92;;;;;;;18.27;46.76;101858.16;5015874;28;20052;-88
2021/12/23 09:24:53;;;;;;;22.00;17.52;;;;;;;18.26;47.45;101863.59;5015878;28;20053;-84
2021/12/23 09:27:54;;;;;;;23.63;17.73;;;;;;;18.25;47.81;101857.38;5035180;28;20041;-84
2021/12/23 09:32:56;;;;;;;21.90;16.55;;;;;;;18.24;48.55;101862.84;5020416;28;20057;-84
2021/12/23 09:35:44;;;;;;;22.42;16.42;;;;;;;18.22;48.78;101862.94;5024049;28;20053;-84
2021/12/23 09:38:12;;;;;;;25.30;17.83;;;;;;;18.22;48.80;101860.25;5037505;28;20045;-86
2021/12/23 09:40:42;;;;;;;20.58;16.45;;;;;;;18.22;49.17;101851.34;5037414;28;20045;-86
2021/12/23 09:43:12;;;;;;;23.48;17.50;;;;;;;18.21;49.13;101853.19;5037623;28;20056;-86
2021/12/23 09:45:42;;;;;;;23.20;17.45;;;;;;;18.22;49.44;101851.34;5038203;28;20046;-88
2021/12/23 09:48:10;;;;;;;24.33;18.15;;;;;;;18.23;49.50;101859.31;5019897;28;20053;-90
2021/12/23 09:50:40;;;;;;;21.77;15.77;;;;;;;18.21;50.26;101853.19;5044615;28;20408;-88
2021/12/23 09:53:08;;;;;;;18.92;16.23;;;;;;;18.22;50.63;101864.75;5038376;28;20050;-88
2021/12/23 09:55:37;;;;;;;22.23;16.02;;;;;;;18.21;50.88;101863.06;5037344;28;20045;-91
2021/12/23 09:58:05;;;;;;;22.33;17.38;;;;;;;18.20;51.22;101855.97;5036187;28;20511;-90
2021/12/23 10:00:38;;;;;;;20.48;16.15;;;;;;;18.21;51.20;101866.59;5051674;28;20065;-86
2021/12/23 10:03:07;;;;;;;;;;;;;;;18.20;51.44;101869.38;5036207;28;20058;-85
2021/12/23 10:05:36;;;;;;;21.67;17.13;;;;;;;18.18;51.40;101877.50;5037242;28;19928;-87
2021/12/23 10:08:06;;;;;;;19.40;15.60;;;;;;;18.20;51.38;101872.91;5036187;28;20054;-79
2021/12/23 10:10:43;;;;;;;19.52;15.55;;;;;;;18.20;51.45;101869.38;5036459;28;20046;-79
2021/12/23 10:29:10;;;;;;;25.20;18.27;;;;;;;18.18;52.40;101857.88;5033153;28;20057;-76
2021/12/23 10:31:21;;;;;;;24.60;17.08;;;;;;;18.18;52.68;101865.91;5036420;28;20054;-75
2021/12/23 10:38:39;;;;;;;26.02;17.98;;;;;;;18.17;53.34;101861.53;5035890;28;20045;-77
2021/12/23 10:41:19;;;;;;;24.17;16.15;;;;;;;18.17;53.36;101853.50;5035666;28;20045;-77
2021/12/23 10:43:53;;;;;;;21.15;16.92;;;;;;;18.17;53.13;101850.81;5035020;28;20052;-79
2021/12/23 10:46:34;;;;;;;22.75;16.58;;;;;;;18.17;53.39;101848.97;5035954;28;20056;-77
2021/12/23 10:52:10;;;;;;;23.83;17.20;;;;;;;18.17;52.68;101857.03;5036215;28;20465;-79
2021/12/23 11:00:41;;;;;;;25.75;17.23;;;;;;;18.15;53.19;101840.19;5014463;28;20046;-77
2021/12/23 11:03:31;;;;;;;21.25;15.75;;;;;;;18.15;52.79;101837.53;5014332;28;20065;-76
2021/12/23 11:28:44;;;;;;;24.98;17.20;;;;;;;18.15;53.43;101807.16;5013248;28;20520;-77
2021/12/23 11:42:11;;;;;;;22.00;16.50;;;;;;;18.13;50.32;101793.88;5034758;28;20050;-77
2021/12/23 11:44:38;;;;;;;21.50;16.17;;;;;;;18.13;50.98;101793.88;5034025;28;20053;-78
2021/12/23 11:47:11;;;;;;;18.63;15.60;;;;;;;18.13;51.46;101791.19;5033541;28;20049;-78
2021/12/23 11:49:40;;;;;;;22.57;17.10;;;;;;;18.13;51.52;101775.09;5016279;28;20386;-77
2021/12/23 11:52:08;;;;;;;19.67;15.23;;;;;;;18.14;51.87;101759.88;5034130;28;20282;-77
2021/12/23 11:54:37;;;;;;;19.98;15.18;;;;;;;18.12;51.88;101751.97;5033547;28;20053;-77
2021/12/23 11:57:19;;;;;;;21.20;15.90;;;;;;;18.13;52.03;101739.41;5033889;28;20045;-77
2021/12/23 12:00:09;;;;;;;18.23;14.75;;;;;;;18.12;52.38;101735.03;5034752;28;20037;-77
2021/12/23 12:02:37;;;;;;;22.80;16.88;;;;;;;18.12;52.12;101737.69;5034401;28;20527;-77
2021/12/23 12:05:14;;;;;;;17.63;14.90;;;;;;;18.11;52.35;101731.50;5034114;28;20057;-77
2021/12/23 12:07:42;;;;;;;21.20;15.98;;;;;;;18.10;52.34;101716.34;5034875;28;20499;-77
2021/12/23 12:10:17;;;;;;;19.23;15.20;;;;;;;18.11;52.17;101719.88;5016508;28;20421;-77
2021/12/23 12:13:07;;;;;;;18.85;15.35;;;;;;;18.11;52.35;101725.25;5035268;28;20050;-77
2021/12/23 12:15:39;;;;;;;19.40;15.98;;;;;;;18.10;52.22;101713.66;5033985;28;20056;-77
2021/12/23 12:18:28;;;;;;;20.00;14.93;;;;;;;18.10;52.17;101713.66;5034485;28;20049;-77
2021/12/23 12:21:00;;;;;;;15.93;13.98;;;;;;;18.09;52.15;101720.00;5013140;28;20069;-77
2021/12/23 12:23:41;;;;;;;19.02;14.98;;;;;;;18.09;52.17;101714.63;5034014;28;20053;-77
2021/12/23 12:26:12;;;;;;;20.55;14.43;;;;;;;18.09;52.33;101695.88;5033996;28;20053;-77
2021/12/23 12:28:44;;;;;;;17.92;14.38;;;;;;;18.08;51.50;101694.16;5034449;28;20049;-77
2021/12/23 12:31:22;;;;;;;18.70;14.18;;;;;;;18.08;51.27;101698.69;5034569;28;20050;-77
2021/12/23 12:33:57;;;;;;;16.98;14.32;;;;;;;18.07;51.14;101697.81;5033925;28;20049;-77
2021/12/23 12:36:25;;;;;;;17.85;14.15;;;;;;;18.06;50.99;101690.72;5033870;28;20053;-77
2021/12/23 12:39:14;;;;;;;18.50;14.27;;;;;;;18.06;50.77;101685.34;5033830;28;20062;-76
2021/12/23 12:41:42;;;;;;;16.80;14.35;;;;;;;18.06;50.88;101671.97;5034302;28;20045;-76
2021/12/23 12:44:26;;;;;;;17.80;13.63;;;;;;;18.06;50.76;101668.44;5034008;28;20056;-77